Time;durP1;ratioP1;P1;durP2;ratioP2;P2;SDS_P1;SDS_P2;PMS_P1;PMS_P2;Temp;Humidity;BMP_temperature;BMP_pressure;BME280_temperature;BME280_humidity;BME280_pressure;Samples;Min_cycle;Max_cycle;Signal;HPM_P1;HPM_P2
2023/03/28 00:01:33;;;;;;;6.22;4.05;;;7.60;99.90;;;6.69;100.00;102127.22;4153247;28;20033;-90
2023/03/28 00:03:38;;;;;;;6.15;3.70;;;7.60;99.90;;;6.67;100.00;102129.09;4169544;28;20489;-90
2023/03/28 00:05:40;;;;;;;4.68;3.30;;;7.60;99.90;;;6.72;100.00;102130.59;4153191;28;20022;-88
2023/03/28 00:07:41;;;;;;;5.80;3.53;;;7.60;99.90;;;6.72;100.00;102127.97;4154082;28;20045;-89
2023/03/28 00:09:42;;;;;;;5.80;3.50;;;7.60;99.90;;;6.71;100.00;102118.41;4152474;28;20030;-90
2023/03/28 00:11:43;;;;;;;7.32;3.35;;;7.60;99.90;;;6.77;100.00;102126.75;4169505;28;20145;-90
2023/03/28 00:13:59;;;;;;;6.10;3.70;;;7.60;99.90;;;6.78;100.00;102122.34;4152970;28;20041;-89
2023/03/28 00:16:08;;;;;;;8.50;3.33;;;7.60;99.90;;;6.73;100.00;102111.28;4137277;28;20053;-87
2023/03/28 00:18:12;;;;;;;5.43;3.20;;;7.60;99.90;;;6.77;100.00;102115.41;4144758;28;20027;-90
2023/03/28 00:20:13;;;;;;;7.28;3.10;;;7.60;99.90;;;6.75;100.00;102110.25;4149173;28;20026;-89
2023/03/28 00:22:14;;;;;;;4.20;2.63;;;7.60;99.90;;;6.72;100.00;102099.13;4152259;28;20545;-89
2023/03/28 00:24:20;;;;;;;5.05;2.53;;;7.60;99.90;;;6.75;100.00;102106.81;4142745;28;20080;-90
2023/03/28 00:26:24;;;;;;;3.65;2.70;;;7.60;99.90;;;6.72;100.00;102101.75;4130307;28;20032;-88
2023/03/28 00:28:24;;;;;;;5.95;2.58;;;7.60;99.90;;;6.73;100.00;102106.88;4143927;28;20064;-89
2023/03/28 00:30:26;;;;;;;6.47;2.45;;;7.60;99.90;;;6.67;100.00;102102.03;4152577;28;20041;-89
2023/03/28 00:32:27;;;;;;;5.78;2.35;;;7.60;99.90;;;6.70;100.00;102093.97;4168872;28;20056;-89
2023/03/28 00:34:27;;;;;;;5.35;2.97;;;7.60;99.90;;;6.78;100.00;102101.34;4152664;28;20037;-89
2023/03/28 00:36:31;;;;;;;5.38;2.78;;;7.60;99.90;;;6.74;100.00;102092.84;4153316;28;20037;-89
2023/03/28 00:38:32;;;;;;;6.50;2.38;;;7.60;99.90;;;6.82;100.00;102094.97;4152545;28;20678;-88
2023/03/28 00:40:37;;;;;;;4.28;1.95;;;7.60;99.90;;;6.77;100.00;102100.50;4153930;28;20029;-90
2023/03/28 00:42:41;;;;;;;4.03;2.80;;;7.60;99.90;;;6.82;100.00;102089.72;4153842;28;20017;-89
2023/03/28 00:44:54;;;;;;;5.05;1.85;;;7.70;99.90;;;6.80;100.00;102084.59;4152342;28;20033;-89
2023/03/28 00:46:55;;;;;;;6.65;2.40;;;7.70;99.90;;;6.80;100.00;102079.34;4168676;28;20517;-89
2023/03/28 00:49:03;;;;;;;3.58;2.13;;;7.70;99.90;;;6.83;100.00;102075.66;4151989;28;20034;-90
2023/03/28 00:51:04;;;;;;;4.13;2.03;;;7.70;99.90;;;6.85;100.00;102082.50;4152058;28;20033;-88
2023/03/28 00:53:25;;;;;;;6.82;2.75;;;7.70;99.90;;;6.93;100.00;102082.00;4152126;28;20029;-89
2023/03/28 00:55:40;;;;;;;5.55;1.55;;;7.70;99.90;;;6.96;100.00;102084.44;4128734;28;20066;-90
2023/03/28 00:57:45;;;;;;;4.35;1.75;;;7.80;99.90;;;6.97;100.00;102088.72;4145548;28;20034;-89
2023/03/28 00:59:46;;;;;;;5.43;1.48;;;7.80;99.90;;;7.01;100.00;102088.44;4152261;28;20052;-89
2023/03/28 01:01:47;;;;;;;6.18;1.90;;;7.90;99.90;;;7.08;100.00;102088.84;4168669;28;20063;-89
2023/03/28 01:04:01;;;;;;;3.35;1.15;;;7.90;99.90;;;7.06;100.00;102088.97;4153411;28;20028;-89
2023/03/28 01:06:03;;;;;;;5.13;1.40;;;7.90;99.90;;;7.02;100.00;102076.13;4151929;28;20090;-89
2023/03/28 01:08:15;;;;;;;3.47;1.40;;;7.90;99.90;;;7.03;100.00;102094.41;4145457;28;20513;-88
2023/03/28 01:10:18;;;;;;;2.05;1.25;;;7.90;99.90;;;6.93;100.00;102080.19;4153388;28;20113;-89
2023/03/28 01:12:20;;;;;;;5.13;2.00;;;7.80;99.90;;;6.93;100.00;102077.59;4152304;28;20064;-87
2023/03/28 01:14:25;;;;;;;3.45;1.50;;;7.80;99.90;;;6.90;100.00;102074.34;4152626;28;20081;-88
2023/03/28 01:16:29;;;;;;;7.72;1.63;;;7.80;99.90;;;6.82;100.00;102066.97;4152858;28;20033;-88
2023/03/28 01:18:33;;;;;;;;;;;7.70;99.90;;;6.77;100.00;102063.81;4152774;28;20040;-88
2023/03/28 01:20:59;;;;;;;3.95;1.55;;;7.70;99.90;;;6.77;100.00;102065.56;4151145;28;19909;-87
2023/03/28 01:23:30;;;;;;;2.60;1.25;;;7.60;99.90;;;6.74;100.00;102058.75;4153218;28;20022;-87
2023/03/28 01:25:52;;;;;;;4.63;1.30;;;7.60;99.90;;;6.76;100.00;102054.25;4152162;28;20092;-87
2023/03/28 01:28:04;;;;;;;3.75;1.13;;;7.60;99.90;;;6.78;100.00;102056.78;4150117;28;20026;-89
2023/03/28 01:30:27;;;;;;;4.63;1.20;;;7.60;99.90;;;6.73;100.00;102051.81;4152955;28;20083;-88
2023/03/28 01:33:16;;;;;;;3.10;0.98;;;7.60;99.90;;;6.78;100.00;102049.72;4151310;28;20104;-89
2023/03/28 01:35:35;;;;;;;2.53;1.30;;;7.60;99.90;;;6.74;100.00;102045.63;4138288;28;20051;-88
2023/03/28 01:37:58;;;;;;;5.60;1.42;;;7.60;99.90;;;6.77;100.00;102048.06;4137130;28;20018;-89
2023/03/28 01:40:05;;;;;;;4.60;1.92;;;7.60;99.90;;;6.79;100.00;102040.94;4151426;28;20041;-89
2023/03/28 01:42:33;;;;;;;3.20;1.05;;;7.70;99.90;;;6.78;100.00;102034.00;4152978;28;20088;-88
2023/03/28 01:44:48;;;;;;;4.15;1.25;;;7.60;99.90;;;6.83;100.00;102026.69;4152826;28;20026;-87
2023/03/28 01:47:24;;;;;;;2.83;1.38;;;7.70;99.90;;;6.81;100.00;102030.34;4140500;28;20508;-90
2023/03/28 01:50:03;;;;;;;;;;;7.60;99.90;;;6.69;100.00;102016.22;4154526;28;20036;-89
2023/03/28 01:52:18;;;;;;;4.30;1.40;;;7.60;99.90;;;6.73;100.00;102014.25;4152767;28;19909;-89
2023/03/28 01:54:50;;;;;;;2.30;1.20;;;7.60;99.90;;;6.68;100.00;102017.19;4152735;28;20076;-90
2023/03/28 01:57:20;;;;;;;2.35;1.10;;;7.60;99.90;;;6.66;100.00;102013.81;4143759;28;20034;-90
2023/03/28 01:59:33;;;;;;;2.17;1.27;;;7.50;99.90;;;6.63;100.00;102004.38;4151428;28;20090;-88
2023/03/28 02:01:50;;;;;;;4.20;1.05;;;7.50;99.90;;;6.65;100.00;102001.66;4151326;28;20024;-89
2023/03/28 02:03:59;;;;;;;4.07;1.08;;;7.50;99.90;;;6.63;100.00;101999.13;4151511;28;20025;-88
2023/03/28 02:06:07;;;;;;;2.90;1.60;;;7.50;99.90;;;6.63;100.00;102009.63;4151214;28;20400;-89
2023/03/28 02:08:10;;;;;;;5.38;1.13;;;7.50;99.90;;;6.59;100.00;102000.28;4151359;28;20480;-88
2023/03/28 02:10:14;;;;;;;3.50;1.50;;;7.50;99.90;;;6.57;100.00;101994.28;4135194;28;20030;-89
2023/03/28 02:12:24;;;;;;;4.97;1.08;;;7.50;99.90;;;6.64;100.00;101998.19;4152365;28;20034;-89
2023/03/28 02:14:32;;;;;;;4.75;1.17;;;7.50;99.90;;;6.65;100.00;101992.03;4151285;28;20061;-90
2023/03/28 02:16:40;;;;;;;2.92;0.90;;;7.60;99.90;;;6.72;100.00;101987.19;4151644;28;20061;-89
2023/03/28 02:18:50;;;;;;;2.08;0.90;;;7.60;99.90;;;6.74;100.00;101994.97;4152261;28;20565;-88
2023/03/28 02:21:01;;;;;;;3.60;1.13;;;7.60;99.90;;;6.81;100.00;101991.84;4151463;28;20516;-88
2023/03/28 02:23:09;;;;;;;2.65;1.00;;;7.60;99.90;;;6.83;100.00;101989.13;4151430;28;20433;-89
2023/03/28 02:25:10;;;;;;;4.30;1.30;;;7.70;99.90;;;6.91;100.00;101987.66;4151138;28;20117;-87
2023/03/28 02:27:11;;;;;;;2.40;1.10;;;7.70;99.90;;;6.91;100.00;101968.47;4152405;28;20022;-89
2023/03/28 02:29:15;;;;;;;2.63;0.90;;;7.70;99.90;;;6.89;100.00;101954.63;4152640;28;20037;-88
2023/03/28 02:31:16;;;;;;;2.60;0.98;;;7.70;99.90;;;6.88;100.00;101956.41;4151734;28;20030;-87
2023/03/28 02:33:38;;;;;;;3.20;1.33;;;7.70;99.90;;;6.87;100.00;101941.59;4156054;28;20070;-87
2023/03/28 02:36:20;;;;;;;5.32;1.13;;;7.70;99.90;;;6.91;100.00;101934.38;4155502;28;20064;-87
2023/03/28 02:38:57;;;;;;;2.25;1.00;;;7.70;99.90;;;6.90;100.00;101930.09;4155163;28;20529;-88
2023/03/28 02:41:22;;;;;;;3.55;1.00;;;7.70;99.90;;;6.85;100.00;101925.13;4150601;28;20045;-88
2023/03/28 02:43:47;;;;;;;;;;;7.70;99.90;;;6.85;100.00;101924.28;4142738;28;20029;-88
2023/03/28 02:45:57;;;;;;;3.50;0.93;;;7.70;99.90;;;6.88;100.00;101924.94;4149679;28;19941;-87
2023/03/28 02:48:19;;;;;;;3.55;1.02;;;7.70;99.90;;;6.92;99.20;101925.56;4145979;28;20030;-88
2023/03/28 02:50:52;;;;;;;4.88;1.13;;;7.70;99.90;;;6.92;98.80;101920.31;4170621;28;20037;-89
2023/03/28 02:53:26;;;;;;;1.65;0.75;;;7.80;99.90;;;6.97;97.40;101915.59;4126833;28;20038;-88
2023/03/28 02:55:33;;;;;;;2.65;1.02;;;7.80;99.90;;;6.99;96.95;101911.09;4154391;28;20029;-90
2023/03/28 02:58:09;;;;;;;3.90;1.42;;;7.90;99.90;;;7.03;97.59;101910.78;4148646;28;20106;-89
2023/03/28 03:00:16;;;;;;;2.50;1.20;;;7.90;99.90;;;7.06;97.71;101905.31;4146609;28;20065;-89
2023/03/28 03:02:19;;;;;;;2.17;1.55;;;7.90;99.90;;;7.12;96.81;101907.53;4154230;28;20453;-88
2023/03/28 03:04:20;;;;;;;2.55;1.00;;;7.90;99.90;;;7.09;96.33;101893.75;4154011;28;20037;-90
2023/03/28 03:06:21;;;;;;;4.82;1.70;;;8.00;99.90;;;7.12;95.86;101886.53;4153996;28;20401;-89
2023/03/28 03:08:22;;;;;;;4.13;0.90;;;8.00;99.90;;;7.20;94.62;101872.88;4165671;28;20018;-88
2023/03/28 03:10:23;;;;;;;4.22;1.10;;;8.00;99.90;;;7.24;92.89;101855.97;4155227;28;20382;-88
2023/03/28 03:12:24;;;;;;;3.83;1.52;;;8.00;99.90;;;7.24;91.79;101840.22;4153724;28;20069;-88
2023/03/28 03:14:26;;;;;;;4.63;0.95;;;8.10;99.90;;;7.30;91.91;101821.41;4154009;28;20061;-87
2023/03/28 03:16:28;;;;;;;2.47;1.20;;;8.10;99.90;;;7.26;91.76;101819.94;4155150;28;20069;-87
2023/03/28 03:18:28;;;;;;;1.92;1.13;;;8.10;99.90;;;7.25;90.75;101826.16;4151849;28;20053;-88
2023/03/28 03:20:32;;;;;;;3.17;1.17;;;8.10;99.90;;;7.24;90.58;101832.34;4154836;28;20072;-88
2023/03/28 03:22:34;;;;;;;5.38;1.23;;;8.10;99.90;;;7.26;91.19;101829.63;4153869;28;20026;-88
2023/03/28 03:24:35;;;;;;;3.35;1.05;;;8.10;99.90;;;7.21;91.19;101817.66;4153935;28;20021;-89
2023/03/28 03:26:36;;;;;;;5.30;1.13;;;8.10;99.90;;;7.28;90.17;101823.31;4154532;28;20026;-87
2023/03/28 03:28:36;;;;;;;2.97;1.00;;;8.10;99.90;;;7.28;90.20;101833.81;4169657;28;20099;-89
2023/03/28 03:30:37;;;;;;;2.38;0.80;;;8.10;99.90;;;7.22;90.51;101831.63;4154916;28;20033;-87
2023/03/28 03:32:38;;;;;;;1.88;0.70;;;8.10;99.90;;;7.26;89.88;101827.81;4154680;28;20026;-90
2023/03/28 03:34:40;;;;;;;2.78;0.98;;;8.10;99.90;;;7.23;90.38;101825.41;4154769;28;20394;-87
2023/03/28 03:36:41;;;;;;;2.85;1.25;;;8.10;99.90;;;7.17;89.92;101821.44;4153264;28;20029;-88
2023/03/28 03:38:42;;;;;;;4.53;0.98;;;8.10;99.90;;;7.20;89.99;101833.50;4153385;28;20026;-88
2023/03/28 03:40:43;;;;;;;2.72;0.90;;;8.00;99.90;;;7.20;88.74;101825.63;4153444;28;20033;-87
2023/03/28 03:42:44;;;;;;;3.35;0.93;;;8.10;99.90;;;7.22;88.41;101839.50;4149302;28;20025;-89
2023/03/28 03:44:45;;;;;;;1.83;0.90;;;8.10;99.90;;;7.24;87.64;101840.22;4153860;28;20030;-90
2023/03/28 03:46:45;;;;;;;4.10;1.52;;;8.10;99.90;;;7.18;88.05;101830.16;4154580;28;20061;-88
2023/03/28 03:48:46;;;;;;;4.18;1.15;;;8.10;99.90;;;7.22;88.61;101834.25;4154551;28;20033;-89
2023/03/28 03:50:47;;;;;;;4.28;0.88;;;8.10;99.90;;;7.27;88.67;101833.91;4154332;28;20030;-88
2023/03/28 03:52:48;;;;;;;2.75;0.70;;;8.10;99.90;;;7.22;88.91;101823.75;4154367;28;20045;-86
2023/03/28 03:54:49;;;;;;;1.70;0.70;;;8.10;99.90;;;7.21;88.82;101816.81;4154530;28;20034;-89
2023/03/28 03:56:50;;;;;;;1.63;0.73;;;8.10;99.90;;;7.27;87.63;101823.41;4154534;28;20474;-89
2023/03/28 03:58:51;;;;;;;5.03;1.30;;;8.10;99.90;;;7.25;87.47;101823.53;4153091;28;20037;-87
2023/03/28 04:00:52;;;;;;;4.57;0.90;;;8.10;99.90;;;7.21;87.42;101820.28;4154311;28;20022;-89
2023/03/28 04:02:52;;;;;;;2.50;0.90;;;8.10;99.90;;;7.20;87.19;101825.63;4153270;28;20026;-86
2023/03/28 04:04:53;;;;;;;2.95;0.70;;;8.10;99.90;;;7.22;86.66;101850.84;4169560;28;20508;-88
2023/03/28 04:06:57;;;;;;;2.08;0.82;;;8.00;99.90;;;7.17;86.15;101857.34;4153983;28;20052;-87
2023/03/28 04:08:58;;;;;;;1.58;1.02;;;8.00;99.90;;;7.13;86.37;101858.50;4153036;28;20029;-88
2023/03/28 04:10:59;;;;;;;3.97;0.88;;;8.00;99.90;;;7.06;86.57;101849.38;4153273;28;20501;-88
2023/03/28 04:13:00;;;;;;;2.13;0.60;;;8.00;99.90;;;7.09;86.50;101851.78;4169454;28;20026;-88
2023/03/28 04:15:01;;;;;;;4.40;0.90;;;7.90;99.90;;;7.00;87.32;101844.56;4153013;28;20042;-88
2023/03/28 04:17:03;;;;;;;3.58;1.17;;;7.90;99.90;;;6.92;87.33;101836.38;4153137;28;20113;-87
2023/03/28 04:19:04;;;;;;;3.47;0.70;;;7.80;99.90;;;6.82;87.89;101832.72;4152846;28;20509;-89
2023/03/28 04:21:08;;;;;;;2.53;0.95;;;7.70;99.90;;;6.77;88.53;101847.94;4153882;28;20057;-89
2023/03/28 04:23:09;;;;;;;1.65;0.80;;;7.60;99.90;;;6.64;88.56;101842.66;4153113;28;20531;-88
2023/03/28 04:25:12;;;;;;;3.10;1.23;;;7.50;99.90;;;6.65;88.26;101836.50;4152772;28;20026;-88
2023/03/28 04:27:14;;;;;;;1.98;0.70;;;7.50;99.90;;;6.52;88.40;101846.97;4168873;28;20056;-87
2023/03/28 04:29:23;;;;;;;3.72;1.17;;;7.40;99.90;;;6.45;89.38;101837.81;4154202;28;20113;-88
2023/03/28 04:31:28;;;;;;;4.13;0.80;;;7.30;99.90;;;6.36;89.64;101837.63;4151970;28;20536;-87
2023/03/28 04:33:32;;;;;;;;;;;7.20;99.90;;;6.28;89.75;101842.50;4152190;28;20045;-87
2023/03/28 04:35:35;;;;;;;3.28;1.25;;;7.20;99.90;;;6.25;89.58;101843.56;4154041;28;19914;-88
2023/03/28 04:37:36;;;;;;;2.00;0.90;;;7.20;99.90;;;6.29;89.13;101836.34;4148374;28;20018;-88
2023/03/28 04:39:40;;;;;;;3.30;1.00;;;7.20;99.90;;;6.37;89.16;101834.88;4148775;28;20056;-88
2023/03/28 04:41:44;;;;;;;6.05;0.90;;;7.30;99.90;;;6.43;89.07;101829.22;4153576;28;20046;-89
2023/03/28 04:43:45;;;;;;;3.97;0.98;;;7.30;99.90;;;6.49;89.04;101823.56;4152601;28;20037;-88
2023/03/28 04:45:46;;;;;;;1.98;0.80;;;7.40;99.90;;;6.58;89.09;101828.19;4152385;28;20018;-89
2023/03/28 04:47:48;;;;;;;1.70;0.77;;;7.40;99.90;;;6.60;88.83;101825.50;4153546;28;20025;-88
2023/03/28 04:49:49;;;;;;;3.85;0.93;;;7.50;99.90;;;6.63;88.72;101827.91;4152455;28;20493;-89
2023/03/28 04:51:50;;;;;;;2.35;0.65;;;7.50;99.90;;;6.70;87.85;101831.75;4153582;28;20390;-89
2023/03/28 04:53:51;;;;;;;2.72;0.90;;;7.60;99.90;;;6.75;87.71;101831.47;4152312;28;20072;-87
2023/03/28 04:55:52;;;;;;;2.78;1.05;;;7.60;99.90;;;6.80;87.31;101834.59;4165034;28;20025;-88
2023/03/28 04:57:53;;;;;;;3.67;1.00;;;7.60;99.90;;;6.77;87.44;101838.28;4151957;28;20037;-88
2023/03/28 04:59:54;;;;;;;5.00;0.93;;;7.70;99.90;;;6.84;87.58;101828.22;4153534;28;20026;-88
2023/03/28 05:01:55;;;;;;;2.28;0.80;;;7.70;99.90;;;6.85;87.83;101832.50;4135719;28;20060;-87
2023/03/28 05:03:56;;;;;;;1.88;0.82;;;7.70;99.90;;;6.96;86.35;101837.88;4153340;28;20489;-88
2023/03/28 05:05:57;;;;;;;1.98;0.93;;;7.70;99.90;;;6.96;86.23;101846.53;4153014;28;20026;-88
2023/03/28 05:07:58;;;;;;;2.67;0.77;;;7.80;99.90;;;6.95;86.22;101842.25;4153423;28;20113;-87
2023/03/28 05:09:59;;;;;;;2.25;0.85;;;7.80;99.90;;;6.95;86.30;101851.91;4152425;28;20084;-89
2023/03/28 05:12:00;;;;;;;2.83;0.88;;;7.80;99.90;;;6.93;86.38;101853.81;4153240;28;20398;-89
2023/03/28 05:14:00;;;;;;;5.93;1.30;;;7.70;99.90;;;6.85;86.95;101853.47;4152946;28;20041;-87
2023/03/28 05:16:02;;;;;;;2.60;0.80;;;7.70;99.90;;;6.84;86.29;101857.06;4152068;28;20026;-87
2023/03/28 05:18:04;;;;;;;2.67;0.80;;;7.70;99.90;;;6.76;86.46;101846.22;4168298;28;20033;-87
2023/03/28 05:20:08;;;;;;;2.97;0.82;;;7.60;99.90;;;6.71;87.03;101835.22;4151897;28;20036;-89
2023/03/28 05:22:10;;;;;;;3.55;0.95;;;7.60;99.90;;;6.66;86.27;101836.38;4152682;28;20036;-88
2023/03/28 05:24:11;;;;;;;3.97;0.88;;;7.50;99.90;;;6.63;86.31;101836.59;4153143;28;20489;-89
2023/03/28 05:26:12;;;;;;;3.42;1.10;;;7.50;99.90;;;6.67;86.15;101847.69;4152972;28;20034;-88
2023/03/28 05:28:13;;;;;;;4.30;0.77;;;7.50;99.90;;;6.65;86.40;101845.19;4152639;28;20141;-88
2023/03/28 05:30:14;;;;;;;3.22;0.82;;;7.50;99.90;;;6.57;86.43;101842.25;4152999;28;20088;-89
2023/03/28 05:32:15;;;;;;;4.15;1.48;;;7.50;99.90;;;6.54;86.98;101837.19;4151805;28;20080;-89
2023/03/28 05:34:16;;;;;;;1.80;0.82;;;7.40;99.90;;;6.50;86.99;101848.00;4152956;28;20087;-88
2023/03/28 05:36:17;;;;;;;3.85;0.75;;;7.40;99.90;;;6.40;87.19;101858.25;4152688;28;20022;-89
2023/03/28 05:38:18;;;;;;;3.88;0.82;;;7.30;99.90;;;6.33;87.91;101859.59;4144595;28;20046;-88
2023/03/28 05:40:19;;;;;;;2.85;1.10;;;7.30;99.90;;;6.29;88.20;101868.63;4152962;28;20018;-89
2023/03/28 05:42:20;;;;;;;2.72;1.00;;;7.20;99.90;;;6.27;88.06;101881.00;4152840;28;20091;-89
2023/03/28 05:44:21;;;;;;;4.32;0.90;;;7.20;99.90;;;6.31;88.49;101874.59;4151676;28;20033;-89
2023/03/28 05:46:22;;;;;;;3.08;0.90;;;7.30;99.90;;;6.47;88.84;101867.41;4152587;28;20040;-89
2023/03/28 05:48:23;;;;;;;3.97;1.00;;;7.30;99.90;;;6.39;89.10;101859.19;4152687;28;20030;-88
2023/03/28 05:50:25;;;;;;;2.47;0.75;;;7.30;99.90;;;6.43;88.93;101876.41;4151388;28;20489;-86
2023/03/28 05:52:26;;;;;;;6.05;1.10;;;7.30;99.90;;;6.38;89.00;101872.41;4152737;28;20057;-87
2023/03/28 05:54:27;;;;;;;3.80;0.98;;;7.30;99.90;;;6.31;89.84;101861.50;4151257;28;20033;-84
2023/03/28 05:56:28;;;;;;;4.13;1.23;;;7.20;99.90;;;6.26;89.98;101855.72;4135250;28;20546;-85
2023/03/28 05:58:28;;;;;;;5.20;1.05;;;7.20;99.90;;;6.23;90.21;101857.69;4162768;28;20452;-85
2023/03/28 06:00:29;;;;;;;3.92;1.00;;;7.20;99.90;;;6.22;90.23;101863.88;4152655;28;20025;-84
2023/03/28 06:02:32;;;;;;;2.88;1.33;;;7.10;99.90;;;6.27;89.75;101859.19;4151345;28;20532;-85
2023/03/28 06:04:33;;;;;;;3.13;1.30;;;7.10;99.90;;;6.24;89.95;101852.38;4152628;28;20113;-85
2023/03/28 06:06:33;;;;;;;2.70;1.25;;;7.10;99.90;;;6.31;90.41;101858.88;4150710;28;20025;-85
2023/03/28 06:08:35;;;;;;;2.85;1.30;;;7.20;99.90;;;6.39;90.99;101853.13;4165707;28;20048;-84
2023/03/28 06:10:35;;;;;;;4.45;1.17;;;7.30;99.90;;;6.48;90.26;101853.34;4151267;28;20030;-85
2023/03/28 06:12:37;;;;;;;3.10;1.40;;;7.40;99.90;;;6.65;90.16;101858.31;4152614;28;20037;-86
2023/03/28 06:14:38;;;;;;;2.78;1.30;;;7.40;99.90;;;6.74;88.77;101848.13;4152003;28;20057;-86
2023/03/28 06:16:39;;;;;;;5.68;1.45;;;7.60;99.90;;;6.90;88.60;101835.66;4152615;28;20433;-85
2023/03/28 06:18:40;;;;;;;2.95;1.15;;;7.70;99.90;;;7.06;87.78;101821.38;4152357;28;20099;-84
2023/03/28 06:20:40;;;;;;;3.03;1.25;;;7.80;99.90;;;7.16;87.25;101808.44;4150821;28;20140;-86
2023/03/28 06:22:41;;;;;;;3.35;1.55;;;7.90;99.90;;;7.30;87.49;101810.09;4152229;28;20040;-85
2023/03/28 06:24:42;;;;;;;5.00;1.40;;;8.00;99.90;;;7.33;86.14;101810.72;4152444;28;20025;-85
2023/03/28 06:26:43;;;;;;;3.70;1.00;;;8.10;99.90;;;7.27;85.51;101799.81;4152459;28;20022;-85
2023/03/28 06:28:44;;;;;;;2.92;1.30;;;8.10;99.90;;;7.26;85.52;101813.88;4151048;28;20040;-85
2023/03/28 06:30:49;;;;;;;3.15;1.48;;;8.10;99.90;;;7.21;84.61;101812.41;4167947;28;20029;-86
2023/03/28 06:32:50;;;;;;;3.78;1.05;;;8.10;99.90;;;7.25;85.08;101805.19;4134662;28;20383;-84
2023/03/28 06:34:51;;;;;;;4.70;1.02;;;8.10;99.90;;;7.29;83.94;101809.25;4167332;28;20052;-85
2023/03/28 06:36:52;;;;;;;3.05;1.00;;;8.10;99.90;;;7.20;84.27;101799.38;4150603;28;20057;-86
2023/03/28 06:38:53;;;;;;;4.22;1.08;;;8.10;99.90;;;7.18;84.10;101802.13;4158592;28;20037;-85
2023/03/28 06:40:55;;;;;;;5.88;1.30;;;8.00;99.90;;;7.14;84.10;101791.94;4152268;28;20140;-86
2023/03/28 06:42:55;;;;;;;2.60;0.93;;;8.00;99.90;;;7.13;84.32;101772.78;4152294;28;20029;-86
2023/03/28 06:44:56;;;;;;;3.08;1.23;;;8.00;99.90;;;7.15;84.79;101775.28;4150842;28;20018;-85
2023/03/28 06:46:57;;;;;;;5.40;1.00;;;8.00;99.90;;;7.14;83.39;101752.59;4150950;28;20072;-85
2023/03/28 06:48:58;;;;;;;3.33;0.90;;;8.00;99.90;;;7.26;84.00;101753.53;4150436;28;20049;-86
2023/03/28 06:50:59;;;;;;;8.90;5.40;;;8.10;99.90;;;7.26;84.13;101746.47;4150649;28;20042;-85
2023/03/28 06:53:00;;;;;;;3.20;1.45;;;8.10;99.90;;;7.29;83.87;101746.25;4151623;28;20018;-85
2023/03/28 06:55:01;;;;;;;4.97;1.98;;;8.10;99.90;;;7.30;84.22;101752.34;4151131;28;20087;-84
2023/03/28 06:57:02;;;;;;;5.30;1.13;;;8.10;99.90;;;7.28;83.99;101767.38;4152057;28;20029;-85
2023/03/28 06:59:04;;;;;;;3.65;0.93;;;8.10;99.90;;;7.16;82.36;101772.56;4152042;28;20034;-84
2023/03/28 07:01:05;;;;;;;2.33;0.90;;;8.00;99.90;;;7.19;81.75;101774.13;4150814;28;20018;-83
2023/03/28 07:03:06;;;;;;;3.72;1.00;;;8.00;99.90;;;7.15;80.60;101762.16;4152251;28;20034;-84
2023/03/28 07:05:07;;;;;;;3.78;0.95;;;8.00;99.90;;;7.16;80.62;101766.47;4150934;28;20094;-84
2023/03/28 07:07:08;;;;;;;4.30;1.30;;;8.00;99.90;;;7.26;80.83;101756.16;4151364;28;20034;-84
2023/03/28 07:09:09;;;;;;;1.85;0.73;;;8.10;99.90;;;7.42;80.15;101736.56;4150718;28;20034;-84
2023/03/28 07:11:10;;;;;;;1.88;0.90;;;8.10;99.90;;;7.46;79.87;101730.16;4152220;28;20060;-84
2023/03/28 07:13:12;;;;;;;4.72;1.10;;;8.20;99.90;;;7.51;80.12;101725.38;4152011;28;20033;-84
2023/03/28 07:15:13;;;;;;;1.85;0.90;;;8.30;99.90;;;7.67;79.47;101719.84;4151911;28;20520;-84
2023/03/28 07:17:14;;;;;;;4.15;1.10;;;8.40;99.90;;;7.82;78.17;101717.88;4146929;28;20026;-84
2023/03/28 07:19:15;;;;;;;3.80;1.33;;;8.50;99.90;;;7.96;76.77;101717.66;4142582;28;20102;-84
2023/03/28 07:21:17;;;;;;;2.35;0.95;;;8.60;99.90;;;8.16;77.23;101724.88;4146724;28;20029;-84
2023/03/28 07:23:18;;;;;;;2.78;1.13;;;8.80;99.90;;;8.41;77.45;101732.59;4153523;28;20105;-84
2023/03/28 07:25:19;;;;;;;2.50;0.82;;;9.00;99.90;;;8.67;76.32;101734.06;4154819;28;20029;-84
2023/03/28 07:27:20;;;;;;;3.33;1.20;;;9.20;99.90;;;8.83;75.34;101723.16;4154926;28;20026;-85
2023/03/28 07:29:21;;;;;;;1.85;0.80;;;9.40;99.90;;;8.92;74.49;101726.88;4153925;28;20030;-84
2023/03/28 07:31:24;;;;;;;2.03;0.80;;;9.50;99.90;;;9.00;74.05;101727.09;4154361;28;20473;-85
2023/03/28 07:33:25;;;;;;;2.90;0.75;;;9.60;99.90;;;9.05;73.02;101724.94;4153337;28;20033;-84
2023/03/28 07:35:26;;;;;;;3.03;1.02;;;9.70;99.90;;;9.00;72.88;101724.47;4143007;28;20102;-85
2023/03/28 07:37:27;;;;;;;4.95;0.88;;;9.70;99.90;;;9.04;73.04;101726.75;4153502;28;20397;-84
2023/03/28 07:39:28;;;;;;;3.88;0.93;;;9.80;99.90;;;9.11;72.66;101727.09;4153351;28;20448;-85
2023/03/28 07:41:29;;;;;;;3.33;0.90;;;9.90;99.90;;;9.15;71.41;101731.13;4153162;28;20425;-84
2023/03/28 07:43:30;;;;;;;2.10;0.88;;;9.90;99.90;;;9.20;71.63;101732.44;4153590;28;20026;-85
2023/03/28 07:45:31;;;;;;;3.63;0.90;;;9.90;99.90;;;9.17;71.42;101742.41;4153423;28;20461;-84
2023/03/28 07:47:32;;;;;;;4.38;0.95;;;10.00;99.90;;;9.17;70.84;101750.28;4169887;28;20051;-84
2023/03/28 07:49:33;;;;;;;4.20;1.35;;;10.00;99.90;;;9.14;70.48;101732.13;4154470;28;20512;-83
2023/03/28 07:51:34;;;;;;;3.35;0.93;;;9.90;99.90;;;9.00;70.10;101727.94;4154383;28;20026;-85
2023/03/28 07:53:36;;;;;;;7.45;1.92;;;9.90;99.90;;;9.04;70.13;101734.63;4153414;28;20453;-84
2023/03/28 07:55:37;;;;;;;2.75;1.13;;;9.90;99.90;;;9.04;69.78;101726.75;4136989;28;20069;-84
2023/03/28 07:57:38;;;;;;;3.40;0.93;;;9.90;99.90;;;9.11;69.85;101730.53;4161673;28;20397;-85
2023/03/28 07:59:39;;;;;;;3.00;0.80;;;9.90;99.90;;;9.14;69.32;101738.19;4154430;28;20030;-84
2023/03/28 08:01:40;;;;;;;2.83;1.20;;;9.90;99.90;;;9.09;68.75;101713.19;4154422;28;20026;-84
2023/03/28 08:03:41;;;;;;;1.55;0.63;;;9.90;99.90;;;9.00;68.13;101698.97;4153245;28;20045;-84
2023/03/28 08:05:48;;;;;;;4.30;0.88;;;9.90;99.90;;;9.03;67.74;101700.53;4152842;28;20018;-85
2023/03/28 08:07:51;;;;;;;2.60;0.80;;;9.90;99.90;;;9.05;67.50;101681.00;4148885;28;20029;-83
2023/03/28 08:09:52;;;;;;;3.97;0.95;;;9.90;99.90;;;9.15;68.57;101686.38;4169328;28;20572;-84
2023/03/28 08:11:53;;;;;;;2.78;0.90;;;9.90;99.90;;;9.25;67.63;101693.44;4154518;28;20464;-84
2023/03/28 08:13:54;;;;;;;4.95;1.00;;;10.00;99.90;;;9.25;66.82;101692.59;4153034;28;20030;-83
2023/03/28 08:15:55;;;;;;;3.05;1.40;;;10.00;99.90;;;9.30;66.63;101700.94;4169320;28;20061;-84
2023/03/28 08:17:56;;;;;;;2.40;1.25;;;10.10;99.90;;;9.44;66.72;101703.28;4153011;28;20095;-85
2023/03/28 08:19:57;;;;;;;7.57;1.70;;;10.20;99.90;;;9.64;65.91;101694.59;4154059;28;20034;-83
2023/03/28 08:22:01;;;;;;;3.55;0.63;;;10.40;99.90;;;9.77;64.69;101682.06;4152571;28;20506;-84
2023/03/28 08:24:03;;;;;;;4.43;1.20;;;10.50;99.90;;;9.95;65.88;101688.44;4169278;28;20029;-84
2023/03/28 08:26:06;;;;;;;4.22;1.30;;;10.60;99.90;;;9.95;64.34;101677.88;4154032;28;20265;-85
2023/03/28 08:28:07;;;;;;;3.50;1.30;;;10.80;99.90;;;10.24;64.99;101683.38;4152831;28;20451;-84
2023/03/28 08:30:09;;;;;;;2.72;0.93;;;10.90;99.90;;;10.33;64.42;101660.66;4153301;28;20033;-84
2023/03/28 08:32:10;;;;;;;4.78;0.90;;;11.10;99.90;;;10.60;64.22;101653.00;4152673;28;20026;-85
2023/03/28 08:34:11;;;;;;;1.63;1.00;;;11.30;99.90;;;10.78;64.36;101671.66;4153045;28;20029;-85
2023/03/28 08:36:13;;;;;;;4.10;1.40;;;11.50;99.90;;;10.93;63.67;101678.22;4153252;28;20056;-84
2023/03/28 08:38:14;;;;;;;3.05;1.20;;;11.60;99.90;;;10.99;62.49;101682.97;4151271;28;20497;-84
2023/03/28 08:40:19;;;;;;;3.45;0.88;;;11.80;99.90;;;11.04;62.28;101694.78;4153865;28;20092;-84
2023/03/28 08:42:41;;;;;;;3.90;1.20;;;11.90;99.90;;;10.68;60.41;101692.72;4154049;28;20022;-84
2023/03/28 08:45:25;;;;;;;4.43;1.35;;;11.80;99.90;;;10.74;61.57;101691.34;4152616;28;20513;-85
2023/03/28 08:47:42;;;;;;;2.45;0.98;;;11.60;99.90;;;10.70;61.56;101685.50;4167294;28;20017;-84
2023/03/28 08:50:22;;;;;;;2.22;0.90;;;11.60;99.90;;;10.72;61.36;101699.38;4152395;28;20057;-83